Time;durP1;ratioP1;P1;durP2;ratioP2;P2;SDS_P1;SDS_P2;PMS_P1;PMS_P2;Temp;Humidity;BMP_temperature;BMP_pressure;BME280_temperature;BME280_humidity;BME280_pressure;Samples;Min_cycle;Max_cycle;Signal;HPM_P1;HPM_P2
2024/03/10 00:00:42;;;;;;;25.63;13.77;;;6.20;99.90;8.70;96027.00;;;;4980955;28;20210;-73
2024/03/10 00:03:31;;;;;;;13.57;12.17;;;6.20;99.90;8.70;96021.00;;;;4989684;28;20211;-73
2024/03/10 00:06:20;;;;;;;14.43;11.40;;;6.10;99.90;8.90;96024.00;;;;4986471;28;20202;-74
2024/03/10 00:09:09;;;;;;;13.90;11.87;;;6.20;99.90;8.80;96027.00;;;;4991105;28;20290;-72
2024/03/10 00:11:58;;;;;;;9.73;8.60;;;6.20;99.90;8.90;96019.00;;;;4981874;28;20221;-73
2024/03/10 00:14:49;;;;;;;15.33;10.90;;;6.20;99.90;8.80;96024.00;;;;4989672;28;20647;-72
2024/03/10 00:17:39;;;;;;;16.87;11.13;;;6.20;99.90;8.70;96006.00;;;;4991269;28;20236;-72
2024/03/10 00:20:29;;;;;;;28.93;14.03;;;6.20;99.90;8.50;96014.00;;;;4987692;28;20203;-73
2024/03/10 00:23:18;;;;;;;12.37;9.00;;;6.20;99.90;8.30;96007.00;;;;4990221;28;20212;-71
2024/03/10 00:26:07;;;;;;;11.83;8.03;;;6.10;99.90;8.50;96011.00;;;;4987047;28;20841;-72
2024/03/10 00:28:56;;;;;;;13.90;9.73;;;6.20;99.90;8.50;95997.00;;;;4987372;28;20233;-72
2024/03/10 00:31:45;;;;;;;19.87;11.90;;;6.10;99.90;8.60;96004.00;;;;4989558;28;20199;-72
2024/03/10 00:34:36;;;;;;;13.73;10.13;;;6.20;99.90;8.50;96002.00;;;;4992194;28;20226;-73
2024/03/10 00:37:24;;;;;;;16.97;12.00;;;6.10;99.90;8.50;95989.00;;;;4989607;28;20240;-74
2024/03/10 00:40:14;;;;;;;16.53;10.77;;;6.10;99.90;8.60;95994.00;;;;4991690;28;20207;-75
2024/03/10 00:43:04;;;;;;;13.33;11.70;;;6.10;99.90;8.50;95992.00;;;;4990564;28;20194;-72
2024/03/10 00:45:52;;;;;;;24.33;18.70;;;6.10;99.90;8.20;95987.00;;;;4987936;28;20214;-72
2024/03/10 00:48:41;;;;;;;27.07;18.23;;;6.10;99.90;8.40;95987.00;;;;4989000;28;20230;-71
2024/03/10 00:51:31;;;;;;;15.37;13.87;;;6.10;99.90;8.70;95990.00;;;;4991544;28;20796;-71
2024/03/10 00:54:20;;;;;;;15.47;14.23;;;6.20;99.90;8.90;95984.00;;;;4987380;28;20231;-75
2024/03/10 00:57:09;;;;;;;20.60;18.77;;;6.20;99.90;8.70;95981.00;;;;4986064;28;20611;-71
2024/03/10 00:59:58;;;;;;;25.20;22.93;;;6.20;99.90;8.70;95971.00;;;;4990996;28;20202;-71
2024/03/10 01:02:48;;;;;;;36.87;33.17;;;6.20;99.90;8.60;95978.00;;;;4989084;28;20203;-71
2024/03/10 01:05:37;;;;;;;27.27;25.23;;;6.20;99.90;8.40;95965.00;;;;4989794;28;20684;-73
2024/03/10 01:08:27;;;;;;;33.83;31.07;;;6.20;99.90;8.40;95970.00;;;;4989267;28;20239;-70
2024/03/10 01:11:16;;;;;;;36.13;33.33;;;6.10;99.90;8.50;95960.00;;;;4989586;28;20199;-70
2024/03/10 01:14:05;;;;;;;36.50;33.43;;;6.10;99.90;8.40;95954.00;;;;4986585;28;20213;-70
2024/03/10 01:16:54;;;;;;;41.07;36.70;;;6.20;99.90;8.20;95957.00;;;;4983659;28;20206;-69
2024/03/10 01:19:44;;;;;;;41.43;37.33;;;6.00;99.90;8.60;95962.00;;;;4993025;28;20249;-70
2024/03/10 01:22:32;;;;;;;42.77;38.87;;;6.10;99.90;8.80;95959.00;;;;4988524;28;20582;-70
2024/03/10 01:25:23;;;;;;;55.97;43.73;;;6.10;99.90;8.70;95958.00;;;;4981216;28;20583;-69
2024/03/10 01:28:12;;;;;;;39.23;35.90;;;6.10;99.90;8.70;95958.00;;;;4988652;28;20222;-69
2024/03/10 01:31:00;;;;;;;48.00;43.40;;;6.10;99.90;8.70;95946.00;;;;4989002;28;20207;-70
2024/03/10 01:33:49;;;;;;;39.30;35.20;;;6.00;99.90;8.60;95944.00;;;;4985485;28;20206;-70
2024/03/10 01:36:38;;;;;;;32.40;29.70;;;6.00;99.90;8.70;95941.00;;;;4988943;28;20205;-70
2024/03/10 01:39:27;;;;;;;29.97;27.40;;;6.00;99.90;8.70;95931.00;;;;4988425;28;20225;-70
2024/03/10 01:42:18;;;;;;;35.50;32.40;;;6.00;99.90;8.60;95916.00;;;;4984124;28;20207;-70
2024/03/10 01:45:08;;;;;;;36.00;32.80;;;6.00;99.90;8.50;95911.00;;;;4989311;28;20226;-69
2024/03/10 01:47:58;;;;;;;34.57;31.70;;;6.00;99.90;8.20;95908.00;;;;4990507;28;20249;-69
2024/03/10 01:50:47;;;;;;;35.57;32.30;;;5.90;99.90;8.00;95908.00;;;;4986146;28;20199;-69
2024/03/10 01:53:38;;;;;;;38.30;34.97;;;5.80;99.90;7.90;95911.00;;;;4981807;28;20212;-69
2024/03/10 01:56:27;;;;;;;33.73;30.87;;;5.80;99.90;8.30;95905.00;;;;4984272;28;20634;-68
2024/03/10 01:59:18;;;;;;;35.17;32.43;;;5.80;99.90;8.30;95900.00;;;;4983192;28;20222;-70
2024/03/10 02:02:07;;;;;;;38.50;35.03;;;5.80;99.90;8.20;95901.00;;;;4984799;28;20210;-70
2024/03/10 02:04:57;;;;;;;39.53;36.00;;;5.80;99.90;8.00;95892.00;;;;4984976;28;20212;-70
2024/03/10 02:07:47;;;;;;;38.03;34.20;;;6.50;99.90;8.10;95898.00;;;;4987435;28;20614;-69
2024/03/10 02:10:36;;;;;;;36.40;32.63;;;5.70;99.90;8.20;95892.00;;;;4981635;28;20203;-69
2024/03/10 02:13:25;;;;;;;32.20;29.73;;;5.80;99.90;8.30;95890.00;;;;4986727;28;20896;-70
2024/03/10 02:16:16;;;;;;;37.87;34.60;;;5.70;99.90;8.40;95888.00;;;;4983025;28;20227;-70
2024/03/10 02:19:06;;;;;;;31.03;28.53;;;5.80;99.90;8.00;95886.00;;;;4983580;28;20194;-69
2024/03/10 02:21:55;;;;;;;43.30;39.10;;;5.70;99.90;8.00;95876.00;;;;4982705;28;20210;-69
2024/03/10 02:24:45;;;;;;;48.90;44.03;;;5.70;99.90;7.70;95882.00;;;;4984080;28;20213;-69
2024/03/10 02:27:42;;;;;;;42.70;38.87;;;5.60;99.90;7.80;95870.00;;;;4988627;28;20223;-69
2024/03/10 02:30:32;;;;;;;57.67;49.80;;;4.30;99.90;7.80;95877.00;;;;4981350;28;20214;-70
2024/03/10 02:49:01;;;;;;;57.00;48.70;;;5.50;99.90;8.40;95869.00;;;;4946325;28;20218;-70
2024/03/10 02:51:52;;;;;;;62.10;52.00;;;5.60;99.90;8.40;95866.00;;;;4986754;28;20207;-69
2024/03/10 02:54:40;;;;;;;117.63;69.33;;;5.70;99.90;8.20;95865.00;;;;4984429;28;20284;-69
2024/03/10 02:57:30;;;;;;;216.27;90.63;;;5.60;99.90;8.20;95874.00;;;;4986019;28;20227;-69
2024/03/10 03:00:21;;;;;;;288.43;100.13;;;5.70;99.90;8.30;95858.00;;;;4979552;28;20211;-70
2024/03/10 03:03:10;;;;;;;262.17;95.53;;;5.70;99.90;8.20;95856.00;;;;4981230;28;20203;-69
2024/03/10 03:05:58;;;;;;;261.17;90.10;;;5.70;99.90;8.20;95860.00;;;;4988213;28;20201;-70
2024/03/10 03:08:47;;;;;;;241.60;94.10;;;5.70;99.90;8.10;95853.00;;;;4980695;28;20249;-69
2024/03/10 03:11:36;;;;;;;132.30;72.27;;;5.70;99.90;8.00;95853.00;;;;4984311;28;20215;-70
2024/03/10 03:14:26;;;;;;;277.13;87.97;;;5.70;99.90;7.90;95859.00;;;;4990176;28;20206;-69
2024/03/10 03:17:17;;;;;;;319.33;88.23;;;5.60;99.90;7.80;95849.00;;;;4988902;28;20226;-69
2024/03/10 03:20:13;;;;;;;187.63;80.40;;;5.60;99.90;7.90;95850.00;;;;4986149;28;20210;-70
2024/03/10 03:23:02;;;;;;;194.07;81.47;;;5.60;99.90;8.00;95845.00;;;;4982678;28;20198;-69
2024/03/10 03:25:53;;;;;;;180.73;82.50;;;5.60;99.90;8.10;95844.00;;;;4981998;28;20222;-69
2024/03/10 03:28:42;;;;;;;248.20;100.87;;;5.60;99.90;8.30;95836.00;;;;4984038;28;20263;-70
2024/03/10 03:31:30;;;;;;;190.67;82.37;;;5.60;99.90;8.30;95826.00;;;;4986439;28;20198;-69
2024/03/10 03:34:21;;;;;;;207.77;84.77;;;5.60;99.90;8.00;95833.00;;;;4988865;28;20221;-69
2024/03/10 03:37:10;;;;;;;147.83;75.33;;;5.60;99.90;7.80;95833.00;;;;4979870;28;20241;-69
2024/03/10 03:39:59;;;;;;;137.03;70.87;;;5.60;99.90;7.80;95834.00;;;;4985295;28;20203;-69
2024/03/10 03:42:48;;;;;;;155.70;76.93;;;5.60;99.90;8.20;95841.00;;;;4980917;28;20564;-69
2024/03/10 03:45:37;;;;;;;169.13;76.90;;;5.60;99.90;8.20;95841.00;;;;4983412;28;20214;-70
2024/03/10 03:48:26;;;;;;;222.60;89.50;;;5.60;99.90;8.40;95814.00;;;;4982853;28;20231;-69
2024/03/10 03:51:16;;;;;;;266.63;87.73;;;5.70;99.90;8.50;95823.00;;;;4982151;28;20214;-69
2024/03/10 03:54:05;;;;;;;333.13;93.00;;;5.70;99.90;8.50;95819.00;;;;4986782;28;20225;-69
2024/03/10 03:56:56;;;;;;;215.67;89.23;;;5.70;99.90;8.30;95828.00;;;;4984394;28;20230;-70
2024/03/10 03:59:44;;;;;;;293.33;88.37;;;5.80;99.90;8.10;95833.00;;;;4981698;28;21128;-70
2024/03/10 04:02:34;;;;;;;278.30;92.17;;;5.70;99.90;8.20;95831.00;;;;4990874;28;20839;-70
2024/03/10 04:05:23;;;;;;;230.97;96.30;;;5.70;99.90;8.00;95839.00;;;;4985354;28;20235;-70
2024/03/10 04:08:13;;;;;;;225.77;86.47;;;5.70;99.90;7.80;95832.00;;;;4986267;28;20619;-70
2024/03/10 04:11:02;;;;;;;200.73;84.83;;;5.60;99.90;7.90;95831.00;;;;4987382;28;20199;-69
2024/03/10 04:13:51;;;;;;;161.43;82.20;;;5.60;99.90;8.10;95835.00;;;;4985942;28;20203;-70
2024/03/10 04:16:40;;;;;;;136.40;73.17;;;;;8.30;95820.00;;;;4982232;28;20238;-70
2024/03/10 04:19:29;;;;;;;104.63;66.70;;;5.70;99.90;8.40;95819.00;;;;4985231;28;20296;-69
2024/03/10 04:22:18;;;;;;;75.97;58.03;;;5.70;99.90;8.50;95809.00;;;;4983248;28;20203;-70
2024/03/10 04:25:10;;;;;;;50.77;45.73;;;5.70;99.90;8.50;95810.00;;;;4987910;28;20214;-70
2024/03/10 04:27:58;;;;;;;29.67;27.23;;;5.80;99.90;8.60;95810.00;;;;4985509;28;20226;-70
2024/03/10 04:30:48;;;;;;;24.87;20.43;;;5.80;99.90;8.60;95809.00;;;;4980196;28;20222;-69
2024/03/10 04:33:37;;;;;;;14.00;12.67;;;5.80;99.90;8.70;95811.00;;;;4985471;28;20218;-69
2024/03/10 04:36:28;;;;;;;15.00;13.50;;;5.90;99.90;8.70;95819.00;;;;4986095;28;20227;-69
2024/03/10 04:39:17;;;;;;;13.83;12.33;;;5.90;99.90;8.30;95809.00;;;;4983626;28;20207;-70
2024/03/10 04:42:07;;;;;;;21.07;19.07;;;5.90;99.90;8.60;95804.00;;;;4984012;28;20215;-70
2024/03/10 04:44:56;;;;;;;15.77;14.43;;;5.90;99.90;8.30;95795.00;;;;4986500;28;20229;-69
2024/03/10 04:47:45;;;;;;;20.03;17.43;;;5.90;99.90;8.20;95785.00;;;;4987119;28;20246;-69
2024/03/10 04:50:34;;;;;;;31.57;24.33;;;5.90;99.90;8.10;95789.00;;;;4985286;28;20214;-70
2024/03/10 04:53:23;;;;;;;21.17;19.47;;;5.80;99.90;8.20;95780.00;;;;4985753;28;20204;-70
2024/03/10 04:56:13;;;;;;;15.83;13.03;;;5.80;99.90;8.30;95792.00;;;;4996977;28;20222;-70
2024/03/10 04:59:03;;;;;;;10.47;9.47;;;5.80;99.90;8.30;95779.00;;;;4989014;28;20218;-70
2024/03/10 05:01:54;;;;;;;22.33;15.07;;;5.80;99.90;8.20;95785.00;;;;4986392;28;20202;-69
2024/03/10 05:04:44;;;;;;;23.17;15.20;;;5.70;99.90;8.30;95781.00;;;;4985481;28;20210;-69
2024/03/10 05:07:32;;;;;;;14.30;12.37;;;5.80;99.90;8.50;95781.00;;;;4988346;28;20237;-70
2024/03/10 05:10:21;;;;;;;25.37;13.03;;;5.80;99.90;8.40;95772.00;;;;4984909;28;20597;-70
2024/03/10 05:13:11;;;;;;;11.53;6.77;;;5.80;99.90;8.50;95775.00;;;;4987446;28;20603;-69
2024/03/10 05:16:01;;;;;;;11.40;6.33;;;5.80;99.90;8.20;95781.00;;;;4986779;28;20211;-70
2024/03/10 05:18:50;;;;;;;22.73;10.20;;;5.80;99.90;8.10;95779.00;;;;4987596;28;20234;-70
2024/03/10 05:21:38;;;;;;;12.77;7.87;;;5.80;99.90;8.40;95773.00;;;;4989538;28;20679;-70
2024/03/10 05:24:27;;;;;;;12.17;6.97;;;5.80;99.90;8.20;95779.00;;;;4989716;28;20218;-70
2024/03/10 05:27:16;;;;;;;12.63;7.23;;;5.80;99.90;8.40;95780.00;;;;4983933;28;20226;-68
2024/03/10 05:30:06;;;;;;;10.67;6.73;;;5.80;99.90;8.30;95776.00;;;;4990409;28;20214;-69
2024/03/10 05:32:57;;;;;;;20.47;11.47;;;5.80;99.90;8.10;95784.00;;;;4989349;28;20226;-72
2024/03/10 05:35:46;;;;;;;23.87;11.67;;;5.80;99.90;8.00;95789.00;;;;4986914;28;20643;-69
2024/03/10 05:38:35;;;;;;;13.63;8.53;;;5.70;99.90;7.80;95787.00;;;;4990308;28;20242;-69
2024/03/10 05:41:23;;;;;;;13.73;9.30;;;5.60;99.90;7.90;95786.00;;;;4989346;28;20207;-69
2024/03/10 05:44:14;;;;;;;12.13;9.07;;;5.60;99.90;7.80;95779.00;;;;4990176;28;20206;-70
2024/03/10 05:47:04;;;;;;;15.30;10.13;;;5.60;99.90;7.80;95776.00;;;;4989330;28;20214;-69
2024/03/10 05:49:54;;;;;;;22.93;12.87;;;5.60;99.90;8.00;95768.00;;;;4988080;28;20207;-70
2024/03/10 05:52:43;;;;;;;8.73;7.90;;;5.50;99.90;7.90;95765.00;;;;4993751;28;20257;-70
2024/03/10 05:55:32;;;;;;;14.13;7.27;;;5.50;99.90;7.90;95760.00;;;;4988152;28;20230;-70
2024/03/10 05:58:22;;;;;;;8.27;6.10;;;5.50;99.90;8.20;95751.00;;;;4983198;28;20246;-69
2024/03/10 06:01:11;;;;;;;8.80;5.27;;;5.60;99.90;8.30;95758.00;;;;4984529;28;20210;-70
2024/03/10 06:04:00;;;;;;;10.73;6.30;;;5.60;99.90;8.20;95769.00;;;;4982598;28;20217;-70
2024/03/10 06:06:51;;;;;;;23.93;10.57;;;5.70;99.90;8.00;95765.00;;;;4980335;28;20580;-70
2024/03/10 06:09:40;;;;;;;13.07;7.60;;;5.60;99.90;8.20;95755.00;;;;4983465;28;20592;-69
2024/03/10 06:12:29;;;;;;;13.37;7.37;;;5.60;99.90;8.20;95762.00;;;;4983783;28;20283;-70
2024/03/10 06:15:19;;;;;;;28.50;12.27;;;5.70;99.90;7.90;95753.00;;;;4989330;28;20213;-69
2024/03/10 06:18:18;;;;;;;12.27;7.17;;;5.60;99.90;7.80;95764.00;;;;4987747;28;20242;-70
2024/03/10 06:27:21;;;;;;;16.67;7.57;;;5.70;99.90;8.10;95781.00;;;;4981619;28;20226;-70
2024/03/10 06:30:11;;;;;;;8.43;5.43;;;5.70;99.90;8.40;95767.00;;;;4979799;28;20212;-70
2024/03/10 06:33:00;;;;;;;8.87;4.60;;;5.70;99.90;8.60;95770.00;;;;4980499;28;20214;-70
2024/03/10 06:35:49;;;;;;;20.17;8.67;;;5.80;99.90;8.70;95766.00;;;;4978897;28;20244;-70
2024/03/10 06:38:40;;;;;;;7.10;4.20;;;5.90;99.90;8.80;95768.00;;;;4982158;28;20767;-70
2024/03/10 06:41:30;;;;;;;13.70;6.67;;;6.00;99.90;8.90;95777.00;;;;4985791;28;20206;-69
2024/03/10 06:44:19;;;;;;;11.77;5.70;;;6.00;99.90;8.80;95769.00;;;;4988431;28;20256;-71
2024/03/10 06:47:09;;;;;;;5.13;3.50;;;6.10;99.90;8.70;95765.00;;;;4984150;28;20723;-69
2024/03/10 06:49:58;;;;;;;94.10;33.87;;;6.10;99.90;8.90;95764.00;;;;4899297;28;20360;-69
2024/03/10 06:52:47;;;;;;;158.57;57.90;;;6.10;99.90;8.90;95765.00;;;;4907914;28;20210;-68
2024/03/10 06:55:36;;;;;;;111.80;41.37;;;6.10;99.90;8.70;95764.00;;;;4902647;28;21517;-68
2024/03/10 06:58:27;;;;;;;184.47;71.33;;;6.60;99.90;8.90;95775.00;;;;4909197;28;20280;-69
2024/03/10 07:01:16;;;;;;;125.60;45.63;;;6.10;99.90;9.00;95775.00;;;;4904708;28;20276;-70
2024/03/10 07:04:06;;;;;;;186.27;72.03;;;6.20;99.90;9.00;95769.00;;;;4904748;28;21125;-69
2024/03/10 07:06:55;;;;;;;147.73;56.13;;;7.30;99.90;9.00;95770.00;;;;4903967;28;20692;-69
2024/03/10 07:09:44;;;;;;;190.17;79.60;;;6.20;99.90;9.00;95774.00;;;;4910305;23;20251;-66
2024/03/10 07:12:33;;;;;;;179.00;74.97;;;6.20;99.90;9.10;95765.00;;;;4883612;28;20206;-66
2024/03/10 07:15:23;;;;;;;180.67;74.47;;;6.40;99.90;8.80;95775.00;;;;4882273;28;20215;-65
2024/03/10 07:18:12;;;;;;;164.73;65.17;;;6.30;99.90;9.10;95770.00;;;;4890430;28;20289;-66
2024/03/10 07:21:01;;;;;;;154.47;66.60;;;6.30;99.90;9.10;95772.00;;;;4882595;28;20791;-66
2024/03/10 07:23:50;;;;;;;21.13;10.27;;;6.30;99.90;9.10;95760.00;;;;4892526;28;20208;-66
2024/03/10 07:26:41;;;;;;;119.70;49.27;;;6.40;99.90;9.20;95769.00;;;;4890531;28;20214;-67
2024/03/10 07:29:30;;;;;;;173.37;72.00;;;6.40;99.90;9.10;95762.00;;;;4889678;28;20308;-65
2024/03/10 07:32:21;;;;;;;130.20;51.37;;;6.40;99.90;9.40;95767.00;;;;4892435;28;20211;-65
2024/03/10 07:35:12;;;;;;;157.57;63.77;;;5.50;99.90;9.30;95761.00;;;;4886327;28;20207;-67
2024/03/10 07:38:01;;;;;;;65.07;25.87;;;6.50;99.90;8.90;95765.00;;;;4877638;28;22168;-65
2024/03/10 07:40:50;;;;;;;179.20;74.80;;;6.50;99.90;9.20;95763.00;;;;4887342;28;20645;-67
2024/03/10 07:43:43;;;;;;;84.43;30.53;;;5.90;99.90;9.40;95756.00;;;;4875986;28;22563;-65
2024/03/10 07:46:32;;;;;;;151.07;63.13;;;6.60;99.90;9.40;95752.00;;;;4882006;28;20207;-66
2024/03/10 07:49:24;;;;;;;96.13;35.63;;;6.60;99.90;9.50;95749.00;;;;4886656;28;20369;-65
2024/03/10 07:52:14;;;;;;;148.37;61.77;;;6.70;99.90;9.80;95736.00;;;;4888283;28;20298;-66
2024/03/10 07:55:04;;;;;;;93.97;36.93;;;6.80;99.90;10.00;95741.00;;;;4876938;28;20211;-66
2024/03/10 07:57:53;;;;;;;161.97;68.93;;;6.80;99.90;10.10;95748.00;;;;4883922;28;20227;-66
2024/03/10 08:00:42;;;;;;;75.70;30.37;;;7.00;99.90;10.30;95748.00;;;;4882625;28;20338;-66
2024/03/10 08:03:31;;;;;;;150.97;63.90;;;7.10;99.90;10.40;95738.00;;;;4883331;28;20387;-65
2024/03/10 08:06:22;;;;;;;122.27;50.10;;;7.30;99.90;10.30;95737.00;;;;4878191;28;22926;-65
2024/03/10 08:09:15;;;;;;;157.77;67.90;;;7.40;99.90;9.60;95731.00;;;;4879572;28;20223;-67
2024/03/10 08:12:05;;;;;;;122.60;51.10;;;6.90;99.90;9.30;95714.00;;;;4876040;28;20881;-68
2024/03/10 08:14:53;;;;;;;29.50;14.67;;;7.30;99.90;9.50;95726.00;;;;4892698;28;20231;-65
2024/03/10 08:17:43;;;;;;;14.13;8.33;;;7.40;99.90;10.30;95707.00;;;;4954803;28;20595;-66
2024/03/10 08:20:32;;;;;;;26.80;13.03;;;7.40;99.90;10.50;95722.00;;;;4966498;28;20199;-66
2024/03/10 08:23:22;;;;;;;11.37;8.87;;;7.60;99.90;10.10;95725.00;;;;4958149;28;20211;-66
2024/03/10 08:26:11;;;;;;;15.33;11.77;;;7.70;99.90;10.30;95714.00;;;;4957514;28;20222;-66
2024/03/10 08:29:00;;;;;;;19.83;11.47;;;7.80;99.90;10.30;95721.00;;;;4969540;28;20223;-67
2024/03/10 08:31:49;;;;;;;19.43;12.67;;;7.90;99.90;10.90;95717.00;;;;4968037;28;20206;-67
2024/03/10 08:34:38;;;;;;;16.53;14.00;;;8.10;99.90;10.60;95710.00;;;;4964419;28;20214;-67
2024/03/10 08:37:28;;;;;;;16.03;14.17;;;8.30;99.90;11.00;95726.00;;;;4966194;28;20203;-65
2024/03/10 08:40:19;;;;;;;18.77;14.13;;;8.40;99.90;10.40;95696.00;;;;4969802;28;20215;-67
2024/03/10 08:43:07;;;;;;;15.83;13.90;;;8.40;99.90;10.70;95714.00;;;;4966234;28;20209;-67
2024/03/10 08:45:57;;;;;;;19.90;12.07;;;8.40;99.90;11.00;95707.00;;;;4969543;28;20223;-67
2024/03/10 08:48:45;;;;;;;24.80;13.83;;;8.40;99.90;11.80;95711.00;;;;4970741;28;20231;-67
2024/03/10 08:51:35;;;;;;;138.10;62.30;;;8.70;99.90;11.10;95706.00;;;;4956377;28;20199;-66
2024/03/10 08:54:24;;;;;;;14.57;10.00;;;8.80;99.90;10.80;95710.00;;;;4938101;28;20339;-67
2024/03/10 08:57:14;;;;;;;27.37;13.03;;;8.70;99.90;11.20;95705.00;;;;4955372;28;20203;-66
2024/03/10 09:00:03;;;;;;;47.30;23.97;;;8.80;99.90;10.70;95702.00;;;;4963000;28;20207;-65
2024/03/10 09:02:53;;;;;;;194.90;86.50;;;8.80;99.90;10.80;95702.00;;;;4884027;28;20215;-66
2024/03/10 09:05:42;;;;;;;156.43;68.37;;;8.80;99.90;11.30;95687.00;;;;4881269;28;20281;-66
2024/03/10 09:08:31;;;;;;;184.83;80.20;;;9.00;99.90;11.90;95697.00;;;;4879862;28;20231;-65
2024/03/10 09:11:23;;;;;;;10.70;8.00;;;9.00;99.90;11.80;95686.00;;;;4919885;28;20590;-66
2024/03/10 09:14:14;;;;;;;13.20;8.90;;;9.20;99.90;11.60;95689.00;;;;4967889;28;20199;-65
2024/03/10 09:17:03;;;;;;;10.23;8.97;;;9.30;99.90;12.60;95694.00;;;;4963086;28;20215;-66
2024/03/10 09:19:52;;;;;;;21.47;11.10;;;9.50;99.90;12.60;95688.00;;;;4968340;28;20223;-65
2024/03/10 09:22:42;;;;;;;16.23;12.27;;;9.60;99.90;12.20;95692.00;;;;4959685;28;20215;-67
2024/03/10 09:25:31;;;;;;;21.83;14.50;;;9.70;99.90;12.70;95685.00;;;;4965549;28;20206;-67
2024/03/10 09:28:20;;;;;;;13.57;12.17;;;9.80;99.90;13.20;95686.00;;;;4965069;28;20230;-65
2024/03/10 09:31:11;;;;;;;117.63;53.80;;;10.00;99.90;13.70;95677.00;;;;4894666;28;20223;-64
2024/03/10 09:34:00;;;;;;;161.77;77.63;;;10.30;99.90;13.00;95677.00;;;;4879293;28;20226;-64
2024/03/10 09:36:49;;;;;;;105.33;49.90;;;10.50;99.90;14.00;95678.00;;;;4870952;28;20297;-63
2024/03/10 09:39:38;;;;;;;181.73;91.37;;;10.70;99.90;13.40;95675.00;;;;4883040;28;20278;-65
2024/03/10 09:42:27;;;;;;;127.83;62.43;;;10.80;99.90;12.90;95663.00;;;;4885642;28;20207;-62
2024/03/10 09:45:20;;;;;;;210.27;105.83;;;10.90;99.90;13.30;95654.00;;;;4886199;28;20699;-65
2024/03/10 09:48:11;;;;;;;99.03;46.87;;;10.90;99.90;12.50;95651.00;;;;4883624;28;22473;-66
2024/03/10 09:51:02;;;;;;;22.33;16.03;;;10.80;99.90;11.50;95658.00;;;;4924290;28;20290;-68
2024/03/10 09:53:51;;;;;;;16.47;14.20;;;10.60;99.90;13.30;95665.00;;;;4969656;28;20685;-64
2024/03/10 09:56:41;;;;;;;13.80;12.23;;;10.60;99.90;13.30;95674.00;;;;4970035;28;20207;-65
2024/03/10 09:59:39;;;;;;;127.43;62.60;;;10.60;99.90;13.20;95671.00;;;;4892779;28;20334;-65
2024/03/10 10:02:35;;;;;;;191.70;88.57;;;11.00;99.90;13.70;95678.00;;;;4890753;28;20223;-65
2024/03/10 10:05:29;;;;;;;160.97;76.73;;;10.80;99.90;13.00;95674.00;;;;4889923;28;21008;-65
2024/03/10 10:08:18;;;;;;;178.10;86.17;;;10.80;99.90;13.30;95684.00;;;;4892179;28;20246;-64
2024/03/10 10:11:08;;;;;;;167.00;75.93;;;10.80;99.90;13.50;95673.00;;;;4885032;28;20249;-65
2024/03/10 10:14:07;;;;;;;154.27;69.97;;;10.80;99.90;13.10;95672.00;;;;4889662;28;20239;-65
2024/03/10 10:16:59;;;;;;;130.83;62.27;;;10.80;99.90;13.30;95665.00;;;;4885778;28;20203;-65
2024/03/10 10:19:50;;;;;;;178.13;78.77;;;10.90;99.90;13.00;95651.00;;;;4888809;28;20243;-65
2024/03/10 10:22:42;;;;;;;184.97;85.83;;;10.90;99.90;15.00;95660.00;;;;4889942;28;20207;-64
2024/03/10 10:25:35;;;;;;;135.83;75.30;;;11.30;99.90;15.60;95661.00;;;;4883628;28;20207;-64
2024/03/10 10:28:24;;;;;;;193.80;131.80;;;11.70;99.90;16.00;95654.00;;;;4891210;28;20351;-64
2024/03/10 10:31:14;;;;;;;118.10;97.67;;;12.20;99.90;15.80;95657.00;;;;4883825;28;20809;-64
2024/03/10 10:34:03;;;;;;;118.37;106.70;;;13.50;99.90;16.00;95648.00;;;;4941576;28;20215;-66
2024/03/10 10:36:54;;;;;;;91.67;84.63;;;12.70;99.90;16.20;95663.00;;;;4967175;28;20204;-65
2024/03/10 10:39:45;;;;;;;238.07;176.70;;;12.80;99.90;16.60;95639.00;;;;4941307;28;20235;-66
2024/03/10 10:42:35;;;;;;;237.93;181.07;;;13.00;99.90;17.10;95645.00;;;;4880795;28;22186;-65
2024/03/10 10:45:26;;;;;;;267.57;217.33;;;13.30;99.90;17.20;95630.00;;;;4890345;28;20756;-66
2024/03/10 10:48:16;;;;;;;272.00;229.80;;;13.60;99.90;17.50;95652.00;;;;4947335;28;20235;-65
2024/03/10 10:51:06;;;;;;;230.40;205.30;;;13.90;99.90;17.40;95650.00;;;;4888235;28;20301;-64
2024/03/10 10:53:55;;;;;;;308.30;265.73;;;14.10;99.90;17.20;95646.00;;;;4889611;28;20380;-66
2024/03/10 10:56:54;;;;;;;312.63;269.53;;;14.10;99.90;17.00;95640.00;;;;4892285;28;21879;-66
2024/03/10 10:59:48;;;;;;;312.53;268.40;;;14.20;99.90;17.30;95634.00;;;;4892731;28;20241;-66
2024/03/10 11:02:42;;;;;;;306.93;266.30;;;14.20;99.90;17.40;95625.00;;;;4888575;28;20211;-65
2024/03/10 11:05:31;;;;;;;277.33;247.50;;;14.20;99.90;16.90;95646.00;;;;4880000;28;20211;-67
2024/03/10 11:08:21;;;;;;;298.80;261.93;;;14.20;99.90;15.80;95632.00;;;;4890037;28;20254;-67
2024/03/10 11:11:14;;;;;;;240.77;215.87;;;13.80;99.90;16.70;95635.00;;;;4879056;28;20309;-67
2024/03/10 11:14:05;;;;;;;296.03;251.77;;;13.70;99.90;16.70;95633.00;;;;4886979;28;20207;-66
2024/03/10 11:17:13;;;;;;;302.47;264.30;;;13.70;99.90;16.60;95627.00;;;;4881484;28;20203;-66
2024/03/10 11:20:02;;;;;;;138.03;127.53;;;13.70;99.90;15.20;95607.00;;;;4957665;28;20736;-65
2024/03/10 11:22:54;;;;;;;335.07;258.80;;;13.50;99.90;15.00;95613.00;;;;4872925;28;20207;-67
2024/03/10 11:25:50;;;;;;;264.67;221.10;;;13.40;99.90;15.10;95599.00;;;;4883743;28;20222;-66
2024/03/10 11:28:50;;;;;;;238.90;205.87;;;13.20;99.90;14.80;95584.00;;;;4873377;28;20306;-65
2024/03/10 11:31:40;;;;;;;205.50;176.40;;;13.10;99.90;14.20;95591.00;;;;4878865;28;20217;-65
2024/03/10 11:34:29;;;;;;;216.53;166.23;;;12.80;99.90;13.30;95591.00;;;;4890700;28;20254;-69
2024/03/10 11:37:18;;;;;;;158.03;129.03;;;12.40;99.90;13.20;95599.00;;;;4881955;28;20716;-67
2024/03/10 11:40:15;;;;;;;66.63;62.30;;;12.00;99.90;13.70;95605.00;;;;4912498;28;20285;-64
2024/03/10 11:43:04;;;;;;;60.80;56.30;;;11.90;99.90;12.60;95582.00;;;;4967427;28;20273;-66
2024/03/10 11:45:54;;;;;;;29.83;26.07;;;11.80;99.90;12.80;95588.00;;;;4968149;28;20210;-66
2024/03/10 11:48:48;;;;;;;25.90;23.60;;;11.60;99.90;12.80;95575.00;;;;4959035;28;20233;-67
2024/03/10 11:51:38;;;;;;;24.93;23.00;;;11.50;99.90;12.90;95551.00;;;;4971034;28;20200;-66
2024/03/10 11:54:27;;;;;;;16.30;12.33;;;11.50;99.90;12.10;95560.00;;;;4970501;28;20210;-67
2024/03/10 11:57:18;;;;;;;40.87;37.90;;;11.40;99.90;12.30;95563.00;;;;4970639;28;20219;-70
2024/03/10 12:00:09;;;;;;;84.60;77.40;;;11.40;99.90;13.30;95571.00;;;;4972139;28;20222;-67
2024/03/10 12:02:58;;;;;;;98.67;88.37;;;11.40;99.90;12.40;95562.00;;;;4964063;28;20202;-63
2024/03/10 12:05:48;;;;;;;92.30;83.43;;;11.40;99.90;12.90;95571.00;;;;4973887;28;20594;-64
2024/03/10 12:08:38;;;;;;;111.13;97.23;;;11.40;99.90;13.00;95581.00;;;;4969765;28;20231;-69
2024/03/10 12:11:27;;;;;;;144.00;115.67;;;11.40;99.90;12.60;95571.00;;;;4962415;28;20247;-68
2024/03/10 12:14:17;;;;;;;130.70;100.13;;;11.30;99.90;12.70;95565.00;;;;4972539;28;20203;-64
2024/03/10 12:17:13;;;;;;;157.50;107.30;;;11.30;99.90;12.70;95569.00;;;;4970906;28;20599;-65
2024/03/10 12:20:02;;;;;;;331.80;135.23;;;11.30;99.90;12.70;95558.00;;;;4970204;28;20223;-64
2024/03/10 12:22:54;;;;;;;332.17;132.53;;;11.30;99.90;13.40;95563.00;;;;4975416;28;20363;-65
2024/03/10 12:25:44;;;;;;;69.50;64.03;;;11.30;99.90;13.70;95564.00;;;;4974634;28;20884;-64
2024/03/10 12:28:33;;;;;;;146.57;99.90;;;11.40;99.90;13.30;95556.00;;;;4928602;28;20227;-64
2024/03/10 12:31:25;;;;;;;459.80;298.17;;;11.40;99.90;13.70;95568.00;;;;4955766;28;20595;-64
2024/03/10 12:34:14;;;;;;;211.20;144.37;;;11.40;99.90;13.40;95556.00;;;;4880375;28;20309;-63
2024/03/10 12:37:04;;;;;;;182.97;122.57;;;11.40;99.90;13.20;95562.00;;;;4952230;28;20291;-64
2024/03/10 12:39:57;;;;;;;151.97;108.57;;;11.30;99.90;13.40;95552.00;;;;4965726;28;20235;-67
2024/03/10 12:42:47;;;;;;;270.10;186.63;;;11.30;99.90;13.70;95553.00;;;;4934316;28;20218;-63
2024/03/10 12:45:38;;;;;;;234.63;165.90;;;11.40;99.90;13.40;95544.00;;;;4884100;28;20208;-66
2024/03/10 12:48:28;;;;;;;287.60;196.77;;;11.30;99.90;13.30;95540.00;;;;4876706;28;20290;-64